Time;durP1;ratioP1;P1;durP2;ratioP2;P2;SDS_P1;SDS_P2;PMS_P1;PMS_P2;Temp;Humidity;BMP_temperature;BMP_pressure;BME280_temperature;BME280_humidity;BME280_pressure;Samples;Min_cycle;Max_cycle;Signal;HPM_P1;HPM_P2
2022/05/21 00:02:22;;;;;;;5.78;2.85;;;;;;;18.55;31.70;99179.94;5160007;27;20397;-64
2022/05/21 00:04:47;;;;;;;5.25;3.30;;;;;;;18.54;31.75;99180.94;5159735;27;20030;-64
2022/05/21 00:07:13;;;;;;;6.43;3.35;;;;;;;18.54;31.67;99174.72;5160766;27;20065;-64
2022/05/21 00:09:39;;;;;;;6.57;2.75;;;;;;;18.54;31.56;99185.44;5160622;27;20027;-64
2022/05/21 00:12:05;;;;;;;7.53;3.00;;;;;;;18.54;31.93;99180.09;5141458;27;20117;-65
2022/05/21 00:14:31;;;;;;;4.85;2.45;;;;;;;18.52;31.88;99182.97;5160004;27;20035;-65
2022/05/21 00:16:57;;;;;;;4.82;2.50;;;;;;;18.50;31.70;99182.31;5160064;27;20054;-65
2022/05/21 00:19:22;;;;;;;5.10;2.67;;;;;;;18.49;31.94;99177.13;5160127;27;20030;-64
2022/05/21 00:21:48;;;;;;;5.75;2.50;;;;;;;18.49;31.75;99182.50;5160040;27;20023;-64
2022/05/21 00:24:14;;;;;;;6.85;3.30;;;;;;;18.49;31.64;99182.50;5160171;27;20389;-64
2022/05/21 00:26:39;;;;;;;4.95;2.22;;;;;;;18.49;31.64;99174.47;5160756;27;20026;-65
2022/05/21 00:29:05;;;;;;;5.55;2.40;;;;;;;18.49;31.50;99177.97;5160139;27;20074;-63
2022/05/21 00:31:30;;;;;;;6.13;2.42;;;;;;;18.48;31.55;99178.16;5156369;27;20041;-63
2022/05/21 00:33:56;;;;;;;3.42;2.35;;;;;;;18.46;31.50;99170.28;5157017;27;20523;-63
2022/05/21 00:36:21;;;;;;;5.68;2.53;;;;;;;18.45;31.39;99177.50;5150242;27;20110;-64
2022/05/21 00:38:47;;;;;;;5.50;2.50;;;;;;;18.45;31.63;99168.66;5141377;27;20580;-63
2022/05/21 00:41:15;;;;;;;2.90;1.88;;;;;;;18.46;31.51;99170.28;5157354;27;20440;-63
2022/05/21 00:43:53;;;;;;;4.57;1.77;;;;;;;18.44;31.14;99161.63;5157529;27;20057;-63
2022/05/21 00:46:29;;;;;;;4.20;2.70;;;;;;;18.43;31.33;99163.44;5156469;27;20532;-63
2022/05/21 00:49:09;;;;;;;3.92;1.92;;;;;;;18.42;31.22;99161.78;5156628;27;20485;-63
2022/05/21 00:51:58;;;;;;;4.22;2.53;;;;;;;18.41;31.20;99149.41;5156903;27;20034;-63
2022/05/21 00:54:29;;;;;;;4.22;2.08;;;;;;;18.42;31.21;99147.56;5144975;27;20043;-63
2022/05/21 00:57:01;;;;;;;5.18;1.85;;;;;;;18.39;31.12;99156.78;5157158;27;20054;-63
2022/05/21 01:02:13;;;;;;;5.30;2.10;;;;;;;18.38;31.21;99149.75;5157021;27;20038;-63
2022/05/21 01:04:38;;;;;;;5.28;2.03;;;;;;;18.39;31.34;99151.41;5155777;27;20031;-63
2022/05/21 01:07:06;;;;;;;3.42;2.00;;;;;;;18.40;31.13;99152.28;5156890;27;20034;-64
2022/05/21 01:09:33;;;;;;;4.43;2.50;;;;;;;18.39;30.93;99150.59;5156332;27;20035;-63
2022/05/21 01:12:02;;;;;;;5.90;2.05;;;;;;;18.39;31.00;99153.28;5156625;27;20431;-63
2022/05/21 01:14:29;;;;;;;5.57;1.92;;;;;;;18.36;31.21;99150.97;5155631;27;20034;-63
2022/05/21 01:16:55;;;;;;;4.60;1.65;;;;;;;18.39;31.23;99158.63;5155828;27;20065;-64
2022/05/21 01:19:20;;;;;;;2.63;1.70;;;;;;;18.39;31.26;99150.59;5156058;27;20560;-63
2022/05/21 01:21:46;;;;;;;4.63;2.13;;;;;;;18.41;31.07;99156.63;5156583;27;20065;-64
2022/05/21 01:24:11;;;;;;;3.35;1.65;;;;;;;18.38;31.14;99146.25;5155409;27;20030;-64
2022/05/21 01:26:39;;;;;;;3.28;1.90;;;;;;;18.38;31.01;99151.63;5140170;27;20018;-64
2022/05/21 01:29:12;;;;;;;2.83;1.92;;;;;;;18.38;31.06;99149.75;5135605;27;20031;-64
2022/05/21 01:31:39;;;;;;;3.03;1.75;;;;;;;18.38;30.90;99148.94;5135887;27;20075;-64
2022/05/21 01:34:04;;;;;;;2.90;1.65;;;;;;;18.38;31.19;99154.28;5140708;27;20034;-64
2022/05/21 01:36:30;;;;;;;5.78;1.55;;;;;;;18.38;30.96;99149.75;5155622;27;20511;-65
2022/05/21 01:38:56;;;;;;;5.40;1.90;;;;;;;18.36;30.82;99148.28;5155411;27;20035;-64
2022/05/21 01:41:22;;;;;;;3.08;1.95;;;;;;;18.37;31.03;99144.59;5155133;27;20027;-64
2022/05/21 01:46:32;;;;;;;7.72;2.17;;;;;;;18.36;31.09;99149.13;5156097;27;20438;-64
2022/05/21 01:48:57;;;;;;;4.18;1.63;;;;;;;18.36;31.03;99150.97;5136711;27;20125;-64
2022/05/21 01:51:23;;;;;;;5.25;1.80;;;;;;;18.35;30.95;99149.28;5155983;27;20050;-64
2022/05/21 01:53:48;;;;;;;2.60;1.60;;;;;;;18.35;30.97;99141.25;5154609;27;20035;-64
2022/05/21 01:56:15;;;;;;;3.15;1.88;;;;;;;18.36;31.21;99149.13;5155465;27;20493;-64
2022/05/21 01:58:42;;;;;;;3.42;2.05;;;;;;;18.36;31.03;99143.78;5154906;27;20037;-64
2022/05/21 02:01:08;;;;;;;3.00;1.90;;;;;;;18.37;30.94;99141.91;5156033;27;20397;-64
2022/05/21 02:03:34;;;;;;;3.20;2.25;;;;;;;18.38;30.86;99140.91;5155323;27;20034;-64
2022/05/21 02:06:00;;;;;;;4.00;1.60;;;;;;;18.38;30.67;99140.91;5155269;27;20035;-64
2022/05/21 02:08:26;;;;;;;4.88;1.75;;;;;;;18.37;31.01;99141.91;5154342;27;20043;-64
2022/05/21 02:10:52;;;;;;;5.10;1.58;;;;;;;18.36;31.00;99143.78;5155563;27;20034;-64
2022/05/21 02:13:22;;;;;;;2.90;1.70;;;;;;;18.35;30.94;99135.91;5155450;27;20037;-64
2022/05/21 02:15:48;;;;;;;4.72;2.03;;;;;;;18.38;31.03;99141.72;5154465;27;20050;-64
2022/05/21 02:18:14;;;;;;;2.47;1.70;;;;;;;18.36;30.87;99135.75;5154963;27;20057;-64
2022/05/21 02:20:40;;;;;;;4.15;1.92;;;;;;;18.39;30.92;99137.22;5155373;27;20076;-64
2022/05/21 02:23:07;;;;;;;6.10;2.30;;;;;;;18.36;31.00;99135.75;5154537;27;20042;-64
2022/05/21 02:25:33;;;;;;;5.75;2.67;;;;;;;18.38;30.88;99143.59;5154482;27;20033;-64
2022/05/21 02:27:59;;;;;;;4.88;3.00;;;;;;;18.35;30.94;99134.06;5154910;27;20027;-64
2022/05/21 02:30:24;;;;;;;6.22;3.03;;;;;;;18.38;30.82;99139.03;5155246;27;20034;-64
2022/05/21 02:32:50;;;;;;;4.70;2.65;;;;;;;18.40;30.86;99146.91;5155543;27;20111;-64
2022/05/21 02:35:15;;;;;;;9.98;3.83;;;;;;;18.39;30.71;99130.00;5154289;27;20050;-64
2022/05/21 02:40:26;;;;;;;6.72;4.20;;;;;;;18.41;30.81;99140.53;5155318;27;20053;-64
2022/05/21 02:42:51;;;;;;;6.65;4.20;;;;;;;18.42;30.94;99143.03;5154864;27;20026;-64
2022/05/21 02:45:20;;;;;;;11.50;5.07;;;;;;;18.42;30.87;99129.63;5135866;27;20504;-64
2022/05/21 02:47:46;;;;;;;10.07;5.07;;;;;;;18.44;30.98;99126.78;5134271;27;20023;-64
2022/05/21 02:50:15;;;;;;;9.38;5.18;;;;;;;18.46;31.05;99127.41;5133776;27;20030;-64
2022/05/21 02:52:41;;;;;;;11.00;5.80;;;;;;;18.48;31.25;99133.44;5134667;27;20034;-64
2022/05/21 02:55:08;;;;;;;8.43;4.80;;;;;;;18.49;31.22;99131.59;5154184;27;20129;-64
2022/05/21 02:57:34;;;;;;;19.13;6.45;;;;;;;18.51;31.04;99127.72;5154450;27;20048;-65
2022/05/21 03:00:01;;;;;;;8.07;5.40;;;;;;;18.53;31.15;99138.28;5153628;27;20038;-65
2022/05/21 03:02:27;;;;;;;14.05;5.93;;;;;;;18.54;31.00;99121.16;5154003;27;20094;-65
2022/05/21 03:04:53;;;;;;;12.30;5.65;;;;;;;18.57;31.26;99136.88;5139888;27;20031;-64
2022/05/21 03:07:19;;;;;;;13.27;6.13;;;;;;;18.58;31.01;99127.81;5133608;27;20401;-64
2022/05/21 03:12:30;;;;;;;13.45;6.32;;;;;;;18.61;31.23;99133.63;5154830;27;20049;-64
2022/05/21 03:14:55;;;;;;;15.23;6.70;;;;;;;18.64;31.32;99120.88;5153729;27;20488;-65
2022/05/21 03:17:20;;;;;;;16.80;6.30;;;;;;;18.67;31.51;99126.72;5154139;27;20046;-65
2022/05/21 03:19:46;;;;;;;9.65;5.40;;;;;;;18.70;31.76;99118.31;5154022;27;20038;-66
2022/05/21 03:22:11;;;;;;;15.18;5.95;;;;;;;18.76;31.87;99117.56;5154400;27;20029;-65
2022/05/21 03:24:37;;;;;;;10.93;5.55;;;;;;;18.79;32.07;99118.22;5153267;27;20042;-65
2022/05/21 03:27:03;;;;;;;15.38;5.80;;;;;;;18.83;32.23;99115.00;5154139;27;20524;-65
2022/05/21 03:29:28;;;;;;;13.55;5.75;;;;;;;18.84;32.22;99118.47;5154109;27;20026;-65
2022/05/21 03:31:54;;;;;;;11.23;6.47;;;;;;;18.88;32.23;99123.31;5153723;27;20405;-63
2022/05/21 03:34:19;;;;;;;10.98;5.82;;;;;;;18.89;32.22;99114.25;5153941;27;20038;-63
2022/05/21 03:36:45;;;;;;;9.40;5.38;;;;;;;18.92;32.38;99100.47;5143858;27;20092;-66
2022/05/21 03:39:10;;;;;;;11.07;6.03;;;;;;;18.95;32.30;99112.72;5145846;27;20034;-63
2022/05/21 03:41:36;;;;;;;12.05;5.60;;;;;;;18.99;32.22;99105.13;5153245;27;20042;-64
2022/05/21 03:44:03;;;;;;;13.68;5.85;;;;;;;19.01;32.16;99106.59;5153403;27;20057;-64
2022/05/21 03:46:28;;;;;;;9.25;4.95;;;;;;;19.04;32.27;99116.94;5154208;27;20023;-64
2022/05/21 03:48:54;;;;;;;14.23;5.10;;;;;;;19.05;32.12;99107.88;5154067;27;20026;-64
2022/05/21 03:51:19;;;;;;;8.18;5.53;;;;;;;19.08;32.06;99105.84;5153940;27;20073;-64
2022/05/21 03:53:45;;;;;;;19.38;6.18;;;;;;;19.09;32.17;99110.19;5153421;27;20030;-64
2022/05/21 03:56:10;;;;;;;10.50;5.30;;;;;;;19.11;31.79;99111.66;5154008;27;20588;-64
2022/05/21 03:58:36;;;;;;;9.82;5.20;;;;;;;19.13;31.93;99114.16;5153699;27;20505;-64
2022/05/21 04:01:01;;;;;;;10.63;5.45;;;;;;;19.13;32.22;99109.63;5153740;27;20037;-65
2022/05/21 04:03:27;;;;;;;12.23;5.72;;;;;;;19.16;32.22;99116.47;5153403;27;20015;-64
2022/05/21 04:05:57;;;;;;;12.20;5.88;;;;;;;19.16;32.16;99114.63;5155950;27;20034;-64
2022/05/21 04:08:23;;;;;;;10.65;4.97;;;;;;;19.17;32.27;99105.56;5157620;27;20026;-64
2022/05/21 04:10:49;;;;;;;11.40;5.13;;;;;;;19.19;32.07;99105.38;5157913;27;20393;-64
2022/05/21 04:13:15;;;;;;;8.85;5.15;;;;;;;19.19;32.19;99102.69;5157547;27;20030;-64
2022/05/21 04:15:41;;;;;;;9.27;5.25;;;;;;;19.19;32.03;99098.13;5141142;27;20050;-64
2022/05/21 04:18:07;;;;;;;14.50;4.70;;;;;;;19.21;31.71;99106.84;5157148;27;20057;-64
2022/05/21 04:20:33;;;;;;;7.97;4.57;;;;;;;19.21;31.59;99098.78;5157448;27;20045;-64
2022/05/21 04:22:58;;;;;;;9.00;4.38;;;;;;;19.25;31.60;99101.09;5156731;27;20038;-64
2022/05/21 04:25:24;;;;;;;7.82;4.10;;;;;;;19.28;31.40;99098.88;5157662;27;20031;-64
2022/05/21 04:27:50;;;;;;;6.32;3.95;;;;;;;19.36;31.39;99098.78;5157183;27;20113;-65
2022/05/21 04:30:21;;;;;;;7.55;3.88;;;;;;;19.48;31.49;99096.41;5139401;27;20246;-65
2022/05/21 04:32:47;;;;;;;6.30;3.20;;;;;;;19.60;31.41;99094.06;5136792;27;20031;-65
2022/05/21 04:35:14;;;;;;;12.27;4.00;;;;;;;19.73;31.03;99090.69;5136340;27;20134;-65
2022/05/21 04:37:40;;;;;;;6.60;3.53;;;;;;;19.83;30.84;99095.75;5153876;27;20062;-65
2022/05/21 04:40:09;;;;;;;7.78;3.58;;;;;;;19.93;30.94;99096.28;5156050;27;20477;-65
2022/05/21 04:42:34;;;;;;;5.72;4.05;;;;;;;20.04;31.21;99091.41;5157352;27;20481;-65
2022/05/21 04:45:00;;;;;;;8.73;3.05;;;;;;;20.11;31.08;99090.44;5157010;27;20034;-65
2022/05/21 04:47:26;;;;;;;6.07;3.45;;;;;;;20.17;31.19;99082.63;5156798;27;20034;-64
2022/05/21 04:49:51;;;;;;;5.15;3.33;;;;;;;20.22;31.35;99081.00;5154526;27;20091;-64
2022/05/21 04:52:17;;;;;;;6.97;3.53;;;;;;;20.28;31.26;99079.41;5135986;27;20074;-65
2022/05/21 04:54:42;;;;;;;7.00;3.50;;;;;;;20.32;31.45;99071.78;5136074;27;20042;-65
2022/05/21 04:57:08;;;;;;;7.10;3.15;;;;;;;20.39;31.32;99072.66;5136531;27;20039;-65
2022/05/21 04:59:33;;;;;;;9.60;3.40;;;;;;;20.43;31.38;99072.06;5147707;27;20039;-65
2022/05/21 05:01:59;;;;;;;9.20;3.28;;;;;;;20.48;31.12;99079.53;5157002;27;20038;-65
2022/05/21 05:04:25;;;;;;;11.60;3.38;;;;;;;20.52;31.47;99070.06;5156354;27;20038;-64
2022/05/21 05:06:51;;;;;;;7.05;2.97;;;;;;;20.57;31.27;99066.78;5156658;27;20086;-64
2022/05/21 05:09:22;;;;;;;4.57;3.20;;;;;;;20.60;31.34;99066.38;5155223;27;20030;-64
2022/05/21 05:11:51;;;;;;;7.78;3.22;;;;;;;20.65;31.45;99063.94;5155862;27;20030;-64
2022/05/21 05:14:18;;;;;;;6.80;2.90;;;;;;;20.68;31.56;99063.53;5156118;27;20113;-64
2022/05/21 05:16:43;;;;;;;5.70;2.65;;;;;;;20.74;31.47;99069.97;5150770;27;20046;-64
2022/05/21 05:19:10;;;;;;;7.78;2.75;;;;;;;20.76;31.42;99059.88;5156303;27;20034;-64
2022/05/21 05:21:36;;;;;;;4.72;2.65;;;;;;;20.81;31.36;99060.13;5156443;27;20038;-64
2022/05/21 05:24:01;;;;;;;6.88;2.85;;;;;;;20.82;31.48;99053.72;5156110;27;20038;-64
2022/05/21 05:26:27;;;;;;;10.90;3.90;;;;;;;20.86;31.56;99051.44;5156044;27;20052;-64
2022/05/21 05:28:52;;;;;;;4.53;2.78;;;;;;;20.88;31.58;99050.22;5155496;27;20065;-64
2022/05/21 05:31:18;;;;;;;4.47;2.70;;;;;;;20.89;31.48;99048.38;5156189;27;20065;-64
2022/05/21 05:33:44;;;;;;;4.13;2.47;;;;;;;20.91;31.60;99040.94;5151602;27;20138;-64
2022/05/21 05:36:09;;;;;;;4.00;2.40;;;;;;;20.91;31.68;99032.88;5140534;27;20049;-64
2022/05/21 05:38:35;;;;;;;6.82;2.50;;;;;;;20.92;31.73;99037.22;5155864;27;20073;-64
2022/05/21 05:41:01;;;;;;;4.55;2.50;;;;;;;20.96;32.07;99029.56;5155539;27;20026;-64
2022/05/21 05:43:27;;;;;;;3.80;2.33;;;;;;;20.96;31.78;99035.75;5156005;27;20072;-64
2022/05/21 05:45:58;;;;;;;6.15;2.90;;;;;;;20.98;31.63;99027.50;5155300;27;20137;-64
2022/05/21 05:48:24;;;;;;;5.05;1.90;;;;;;;21.01;31.66;99025.25;5155610;27;20077;-64
2022/05/21 05:50:50;;;;;;;3.47;2.47;;;;;;;21.03;31.93;99025.03;5155606;27;20066;-64
2022/05/21 05:53:15;;;;;;;6.88;2.45;;;;;;;21.04;32.24;99019.47;5155498;27;20070;-64
2022/05/21 05:55:42;;;;;;;4.13;2.03;;;;;;;21.05;31.91;99017.59;5155564;27;20034;-64
2022/05/21 06:00:52;;;;;;;3.47;2.13;;;;;;;21.04;31.79;99008.69;5156008;27;20496;-64
2022/05/21 06:03:20;;;;;;;11.75;2.25;;;;;;;21.06;31.93;99010.38;5155586;27;20405;-64
2022/05/21 06:05:45;;;;;;;3.90;2.10;;;;;;;21.06;31.85;99007.66;5151615;27;20038;-64
2022/05/21 06:08:11;;;;;;;4.20;2.05;;;;;;;21.01;31.85;98998.34;5155222;27;20038;-64
2022/05/21 06:10:40;;;;;;;8.73;2.40;;;;;;;21.01;31.62;98987.59;5155461;27;20109;-64
2022/05/21 06:13:07;;;;;;;4.28;1.90;;;;;;;20.98;31.72;98993.34;5154223;27;20090;-64
2022/05/21 06:15:33;;;;;;;6.55;1.90;;;;;;;20.96;31.65;98992.72;5154432;27;20050;-64
2022/05/21 06:17:59;;;;;;;4.07;2.20;;;;;;;20.93;31.95;98995.00;5154542;27;20031;-64
2022/05/21 06:20:26;;;;;;;5.50;1.70;;;;;;;20.92;31.66;98986.13;5155167;27;20053;-64
2022/05/21 06:22:53;;;;;;;4.60;2.03;;;;;;;20.92;31.86;98987.97;5154323;27;20031;-65
2022/05/21 06:25:21;;;;;;;3.28;1.60;;;;;;;20.89;31.93;98978.44;5153553;27;20026;-64
2022/05/21 06:27:49;;;;;;;4.03;1.80;;;;;;;20.89;31.98;98984.63;5154427;27;20018;-65
2022/05/21 06:30:16;;;;;;;5.93;1.48;;;;;;;20.88;31.82;98979.47;5154948;27;20545;-64
2022/05/21 06:32:42;;;;;;;3.38;1.60;;;;;;;20.88;31.86;98969.53;5154689;27;20030;-64
2022/05/21 06:35:11;;;;;;;4.22;1.52;;;;;;;20.87;31.76;98967.91;5153830;27;20057;-64
2022/05/21 06:37:36;;;;;;;2.78;1.70;;;;;;;20.86;31.60;98968.94;5135693;27;20164;-64
2022/05/21 06:40:03;;;;;;;3.55;1.90;;;;;;;20.85;31.75;98969.13;5154701;27;20031;-64
2022/05/21 06:42:29;;;;;;;3.63;1.92;;;;;;;20.84;31.77;98968.31;5154586;27;20485;-65
2022/05/21 06:44:54;;;;;;;2.45;1.40;;;;;;;20.83;31.96;98969.34;5140023;27;20041;-66
2022/05/21 06:47:20;;;;;;;2.53;1.60;;;;;;;20.83;31.93;98958.59;5133988;27;20027;-65
2022/05/21 06:49:46;;;;;;;3.92;1.58;;;;;;;20.84;31.99;98959.41;5145786;27;20030;-65
2022/05/21 06:52:11;;;;;;;6.60;1.33;;;;;;;20.82;31.45;98961.44;5153639;27;20087;-65
2022/05/21 06:54:37;;;;;;;2.75;1.50;;;;;;;20.82;31.50;98959.59;5154447;27;20078;-65
2022/05/21 06:57:08;;;;;;;4.35;1.30;;;;;;;20.82;31.64;98962.28;5154606;27;20034;-63
2022/05/21 06:59:34;;;;;;;4.22;1.70;;;;;;;20.81;31.41;98960.63;5151913;27;20086;-63
2022/05/21 07:01:59;;;;;;;2.75;1.17;;;;;;;20.80;31.04;98953.59;5153682;27;20409;-64
2022/05/21 07:09:57;;;;;;;2.55;1.15;;;;;;;20.79;31.54;98946.56;5153760;27;20520;-63
2022/05/21 07:12:22;;;;;;;2.22;1.15;;;;;;;20.78;30.89;98939.53;5154090;27;20095;-64
2022/05/21 07:14:48;;;;;;;3.47;1.25;;;;;;;20.79;30.67;98935.00;5153964;27;20034;-64
2022/05/21 07:17:16;;;;;;;6.93;1.13;;;;;;;20.79;30.11;98932.31;5153968;27;20037;-64
2022/05/21 07:19:42;;;;;;;2.38;1.23;;;;;;;20.79;29.92;98937.69;5153491;27;20472;-64
2022/05/21 07:22:08;;;;;;;2.65;1.90;;;;;;;20.77;29.76;98924.44;5154081;27;20054;-64
2022/05/21 07:24:38;;;;;;;6.13;1.30;;;;;;;20.79;29.76;98921.56;5154346;27;20031;-64
2022/05/21 07:27:04;;;;;;;1.65;0.98;;;;;;;20.77;29.57;98915.53;5134475;27;20035;-64
2022/05/21 07:29:29;;;;;;;4.55;1.50;;;;;;;20.76;29.30;98920.06;5145308;27;20161;-64
2022/05/21 07:31:55;;;;;;;1.75;1.25;;;;;;;20.77;29.30;98915.53;5153681;27;20027;-64
2022/05/21 07:34:21;;;;;;;3.33;1.52;;;;;;;20.76;29.35;98903.13;5153840;27;20037;-64
2022/05/21 07:36:47;;;;;;;3.13;1.15;;;;;;;20.76;28.91;98913.88;5153325;27;20477;-64
2022/05/21 07:39:12;;;;;;;4.15;1.88;;;;;;;20.74;29.01;98906.81;5154392;27;20087;-64
2022/05/21 07:41:38;;;;;;;3.75;1.27;;;;;;;20.74;28.82;98911.34;5158458;27;20037;-64
2022/05/21 07:44:03;;;;;;;1.63;1.08;;;;;;;20.74;28.97;98906.81;5158607;27;20031;-64
2022/05/21 07:46:29;;;;;;;3.42;1.42;;;;;;;20.73;28.65;98905.16;5157944;27;20026;-64
2022/05/21 07:48:54;;;;;;;4.70;1.48;;;;;;;20.74;28.58;98906.81;5157369;27;20044;-64
2022/05/21 07:51:20;;;;;;;5.10;2.08;;;;;;;20.74;29.02;98908.66;5158290;27;20031;-64
2022/05/21 07:53:45;;;;;;;2.72;1.33;;;;;;;20.73;28.61;98902.47;5158953;27;20441;-65
2022/05/21 07:56:11;;;;;;;4.57;2.38;;;;;;;20.72;28.68;98898.13;5157377;27;20481;-65
2022/05/21 07:58:39;;;;;;;3.45;2.38;;;;;;;20.72;28.72;98894.63;5157112;27;20027;-64
2022/05/21 08:01:04;;;;;;;4.82;1.83;;;;;;;20.71;28.70;98893.78;5157593;27;20038;-64
2022/05/21 08:03:30;;;;;;;3.72;1.63;;;;;;;20.72;28.41;98887.38;5158228;27;20035;-64
2022/05/21 08:05:55;;;;;;;4.07;1.52;;;;;;;20.72;28.56;98876.63;5157196;27;20125;-64
2022/05/21 08:08:22;;;;;;;4.05;2.28;;;;;;;20.72;28.85;98886.56;5157866;27;20118;-65
2022/05/21 08:10:48;;;;;;;4.38;2.00;;;;;;;20.72;28.56;98878.50;5157829;27;20050;-65
2022/05/21 08:13:16;;;;;;;6.65;3.13;;;;;;;20.71;28.75;98874.97;5157811;27;20030;-65
2022/05/21 08:15:42;;;;;;;3.40;1.85;;;;;;;20.71;29.09;98876.84;5155541;27;20493;-64
2022/05/21 08:18:08;;;;;;;4.32;2.47;;;;;;;20.70;29.00;98867.91;5157309;27;20042;-65
2022/05/21 08:20:36;;;;;;;3.63;1.70;;;;;;;20.70;28.69;98861.72;5156374;27;20045;-65
2022/05/21 08:28:29;;;;;;;4.07;2.03;;;;;;;20.67;27.43;98851.38;5157906;27;20548;-65
2022/05/21 08:30:55;;;;;;;4.30;1.80;;;;;;;20.67;27.64;98843.31;5157297;27;20038;-65
2022/05/21 08:33:22;;;;;;;3.67;1.67;;;;;;;20.68;27.86;98851.16;5157012;27;20038;-65
2022/05/21 08:35:47;;;;;;;4.50;2.15;;;;;;;20.66;28.03;98845.16;5158813;27;20042;-65
2022/05/21 08:38:15;;;;;;;4.03;1.88;;;;;;;20.65;28.12;98846.22;5177919;27;20042;-65
2022/05/21 08:40:56;;;;;;;6.05;1.95;;;;;;;20.65;27.66;98840.84;5177963;27;20038;-65
2022/05/21 08:43:24;;;;;;;2.70;1.60;;;;;;;20.65;28.03;98850.75;5166452;27;20057;-64
2022/05/21 08:46:19;;;;;;;4.47;1.95;;;;;;;20.64;28.86;98847.25;5157375;27;20039;-65
2022/05/21 08:49:08;;;;;;;4.97;1.75;;;;;;;20.64;28.86;98843.72;5155219;27;20102;-65
2022/05/21 08:51:42;;;;;;;7.25;2.45;;;;;;;20.63;28.62;98837.53;5155977;27;20041;-65
2022/05/21 08:54:08;;;;;;;6.07;2.50;;;;;;;20.63;28.29;98825.94;5157029;27;20447;-65
2022/05/21 08:56:36;;;;;;;10.52;6.68;;;;;;;20.63;28.78;98818.72;5156762;27;20134;-65
2022/05/21 08:59:04;;;;;;;18.50;12.00;;;;;;;20.63;28.79;98817.88;5145695;27;20023;-65
2022/05/21 09:01:34;;;;;;;20.52;13.57;;;;;;;20.64;28.79;98816.84;5135794;27;20066;-65
2022/05/21 09:03:59;;;;;;;12.18;8.82;;;;;;;20.63;28.14;98817.88;5147105;27;20470;-65
2022/05/21 09:06:37;;;;;;;15.43;11.10;;;;;;;20.62;28.40;98806.31;5153902;27;20090;-65
2022/05/21 09:09:34;;;;;;;15.65;9.60;;;;;;;20.62;28.27;98805.47;5156405;27;20461;-65
2022/05/21 09:12:06;;;;;;;15.95;10.30;;;;;;;20.62;27.75;98810.84;5133999;27;20038;-64
2022/05/21 09:14:42;;;;;;;17.23;9.18;;;;;;;20.61;28.24;98801.13;5155237;27;20034;-64
2022/05/21 09:17:13;;;;;;;16.40;10.70;;;;;;;20.59;28.31;98801.34;5156353;27;20055;-64
2022/05/21 09:19:42;;;;;;;;;;;;;;;20.52;28.85;98798.63;5156177;27;20034;-64
2022/05/21 09:22:16;;;;;;;12.38;7.70;;;;;;;20.54;28.56;98798.41;5156352;27;19922;-64
2022/05/21 09:24:43;;;;;;;11.80;4.70;;;;;;;20.56;28.10;98799.03;5156346;27;20031;-64
2022/05/21 09:27:28;;;;;;;9.95;6.57;;;;;;;20.55;28.23;98797.38;5155320;27;20035;-64
2022/05/21 09:30:29;;;;;;;17.00;8.30;;;;;;;20.55;28.41;98792.84;5155735;27;20034;-64
2022/05/21 09:33:01;;;;;;;12.80;5.80;;;;;;;20.54;28.65;98795.72;5155569;27;20117;-64
2022/05/21 09:35:51;;;;;;;11.38;7.45;;;;;;;20.54;28.83;98784.97;5155731;27;20125;-64
2022/05/21 09:38:22;;;;;;;12.13;6.82;;;;;;;20.54;29.03;98776.91;5152277;27;20030;-64
2022/05/21 09:40:49;;;;;;;12.15;7.10;;;;;;;20.54;29.56;98766.16;5155432;27;20553;-64
2022/05/21 09:46:26;;;;;;;9.77;4.80;;;;;;;20.53;29.72;98759.13;5156130;27;20163;-64
2022/05/21 09:48:54;;;;;;;9.45;5.10;;;;;;;20.53;29.28;98764.50;5154882;27;20477;-64
2022/05/21 09:51:29;;;;;;;9.00;4.45;;;;;;;20.53;29.38;98761.81;5155518;27;20035;-65
2022/05/21 09:53:55;;;;;;;9.32;5.05;;;;;;;20.52;29.17;98755.63;5155106;27;20031;-64
2022/05/21 09:56:20;;;;;;;11.18;5.05;;;;;;;20.53;29.65;98764.50;5136963;27;20042;-64
2022/05/21 09:58:48;;;;;;;11.82;4.05;;;;;;;20.53;29.73;98759.13;5155074;27;20031;-64
2022/05/21 10:01:36;;;;;;;13.75;9.00;;;;;;;20.53;31.42;98757.28;5155068;27;20079;-64
2022/05/21 10:04:12;;;;;;;8.20;4.88;;;;;;;20.52;31.05;98752.94;5140667;27;20053;-64
2022/05/21 10:06:44;;;;;;;7.60;5.47;;;;;;;20.54;31.55;98744.66;5155873;27;20026;-65
2022/05/21 10:12:17;;;;;;;9.10;3.22;;;;;;;20.53;30.90;98740.31;5155220;27;20041;-65
2022/05/21 10:15:12;;;;;;;4.75;3.25;;;;;;;20.54;30.37;98736.59;5153121;27;20121;-65
2022/05/21 10:17:44;;;;;;;8.25;4.00;;;;;;;20.53;30.34;98724.19;5135892;27;20405;-64
2022/05/21 10:20:16;;;;;;;5.85;3.15;;;;;;;20.53;30.31;98721.50;5154210;27;20064;-64
2022/05/21 10:22:53;;;;;;;4.72;3.20;;;;;;;20.53;30.21;98716.13;5155366;27;20030;-64
2022/05/21 10:25:27;;;;;;;5.57;3.53;;;;;;;20.53;30.45;98716.13;5154881;27;20023;-65
2022/05/21 10:28:09;;;;;;;8.55;4.00;;;;;;;20.51;30.75;98715.53;5154924;27;20022;-64
2022/05/21 10:30:57;;;;;;;7.28;3.55;;;;;;;20.52;31.08;98711.78;5154803;27;20035;-64
2022/05/21 10:33:35;;;;;;;4.78;2.72;;;;;;;20.52;30.89;98714.47;5154447;27;20525;-64
2022/05/21 10:36:16;;;;;;;6.53;3.55;;;;;;;20.52;31.27;98711.78;5158547;27;20034;-64
2022/05/21 10:39:00;;;;;;;;;;;;;;;20.44;31.61;98707.44;5176392;27;20580;-64
2022/05/21 10:41:56;;;;;;;5.78;2.55;;;;;;;20.47;31.69;98708.91;5175915;27;19921;-64
2022/05/21 10:44:43;;;;;;;3.95;2.40;;;;;;;20.48;31.81;98711.38;5164969;27;20493;-64
2022/05/21 10:47:22;;;;;;;4.95;2.80;;;;;;;20.48;31.38;98711.38;5154615;27;20019;-64
2022/05/21 10:49:57;;;;;;;4.68;2.80;;;;;;;20.49;31.91;98710.34;5151009;27;20063;-64
2022/05/21 10:52:22;;;;;;;3.13;1.95;;;;;;;20.49;31.21;98696.91;5133776;27;20485;-64
2022/05/21 10:55:00;;;;;;;5.53;2.80;;;;;;;20.49;31.42;98693.41;5147977;27;20036;-64
2022/05/21 10:57:40;;;;;;;4.00;2.20;;;;;;;20.49;30.93;98696.13;5154582;27;20486;-64
2022/05/21 11:00:11;;;;;;;5.43;2.13;;;;;;;20.48;31.41;98697.16;5154649;27;20037;-64
2022/05/21 11:02:55;;;;;;;3.45;2.50;;;;;;;20.48;31.59;98699.81;5154617;27;20263;-65
2022/05/21 11:05:47;;;;;;;3.95;2.47;;;;;;;20.49;31.72;98706.84;5154268;27;20457;-64
2022/05/21 11:08:18;;;;;;;5.68;1.90;;;;;;;20.48;31.35;98702.50;5153761;27;20054;-63
2022/05/21 11:10:51;;;;;;;2.88;2.17;;;;;;;20.48;32.05;98686.41;5154543;27;20366;-64
2022/05/21 11:13:27;;;;;;;4.93;2.25;;;;;;;20.49;32.08;98677.31;5154129;27;20063;-64
2022/05/21 11:16:12;;;;;;;3.30;2.00;;;;;;;20.50;31.84;98673.59;5137232;27;20544;-64
2022/05/21 11:18:44;;;;;;;3.35;1.70;;;;;;;20.50;31.26;98684.34;5133974;27;20110;-63
2022/05/21 11:21:23;;;;;;;4.47;2.20;;;;;;;20.49;31.16;98675.44;5153916;27;20030;-64
2022/05/21 11:23:56;;;;;;;3.15;1.95;;;;;;;20.50;31.16;98676.28;5153593;27;20503;-64
2022/05/21 11:26:47;;;;;;;2.83;1.77;;;;;;;20.50;31.13;98662.84;5154495;27;20054;-65
2022/05/21 11:29:27;;;;;;;;;;;;;;;20.42;31.35;98667.38;5154651;27;20489;-64
2022/05/21 11:37:42;;;;;;;3.30;1.90;;;;;;;20.46;31.55;98650.84;5171730;27;20037;-64
2022/05/21 11:40:09;;;;;;;2.38;1.50;;;;;;;20.46;31.63;98638.22;5174927;27;20057;-65
2022/05/21 11:42:36;;;;;;;4.82;1.45;;;;;;;20.48;31.45;98640.72;5174867;27;20117;-64
2022/05/21 11:45:22;;;;;;;4.25;1.63;;;;;;;20.48;32.26;98622.72;5162688;27;20509;-64
2022/05/21 11:47:49;;;;;;;4.57;2.08;;;;;;;20.48;32.19;98628.09;5154126;27;20033;-64
2022/05/21 11:50:22;;;;;;;3.38;1.77;;;;;;;20.50;32.54;98631.41;5139262;27;20027;-64
2022/05/21 11:53:08;;;;;;;3.42;2.28;;;;;;;20.52;32.55;98625.81;5133452;28;20110;-65
2022/05/21 11:55:55;;;;;;;2.85;1.65;;;;;;;20.50;32.16;98628.72;5133098;28;20037;-64
2022/05/21 11:58:27;;;;;;;2.75;1.73;;;;;;;20.51;32.07;98626.88;5132818;28;20027;-64
2022/05/21 12:00:52;;;;;;;3.00;1.75;;;;;;;20.50;31.87;98617.97;5150320;27;20497;-64
2022/05/21 12:03:21;;;;;;;2.60;1.48;;;;;;;20.53;32.02;98627.47;5154032;27;20034;-64
2022/05/21 12:05:49;;;;;;;2.67;1.50;;;;;;;20.53;31.68;98627.47;5153237;27;20031;-64
2022/05/21 12:08:20;;;;;;;2.38;1.17;;;;;;;20.53;32.32;98622.09;5154195;27;20489;-64
2022/05/21 12:10:53;;;;;;;;;;;;;;;20.47;32.14;98609.50;5153607;27;20026;-64
2022/05/21 12:13:21;;;;;;;3.70;1.55;;;;;;;20.48;31.51;98608.47;5153510;27;19915;-64
2022/05/21 12:15:53;;;;;;;2.13;1.35;;;;;;;20.50;30.79;98601.03;5153450;27;20047;-64
2022/05/21 12:18:31;;;;;;;2.20;1.45;;;;;;;20.50;30.47;98604.53;5153861;27;20057;-64